sensor_id;sensor_type;location;lat;lon;timestamp;P1;durP1;ratioP1;P2;durP2;ratioP2
5147;SDS011;2592;48.140;7.614;2022-08-24T00:01:39;6.17;;;3.90;;
5147;SDS011;2592;48.140;7.614;2022-08-24T00:04:07;7.80;;;3.53;;
5147;SDS011;2592;48.140;7.614;2022-08-24T00:06:33;6.23;;;4.10;;
5147;SDS011;2592;48.140;7.614;2022-08-24T00:08:59;9.20;;;3.77;;
5147;SDS011;2592;48.140;7.614;2022-08-24T00:11:26;4.70;;;3.90;;
5147;SDS011;2592;48.140;7.614;2022-08-24T00:13:53;7.20;;;4.43;;
5147;SDS011;2592;48.140;7.614;2022-08-24T00:16:20;7.50;;;3.80;;
5147;SDS011;2592;48.140;7.614;2022-08-24T00:18:46;8.70;;;3.90;;
5147;SDS011;2592;48.140;7.614;2022-08-24T00:21:14;6.43;;;3.93;;
5147;SDS011;2592;48.140;7.614;2022-08-24T00:23:41;5.30;;;3.80;;
5147;SDS011;2592;48.140;7.614;2022-08-24T00:26:08;6.57;;;4.80;;
5147;SDS011;2592;48.140;7.614;2022-08-24T00:28:34;7.90;;;4.20;;
5147;SDS011;2592;48.140;7.614;2022-08-24T00:31:01;7.10;;;4.10;;
5147;SDS011;2592;48.140;7.614;2022-08-24T00:33:28;13.83;;;4.03;;
5147;SDS011;2592;48.140;7.614;2022-08-24T00:35:54;6.83;;;3.57;;
5147;SDS011;2592;48.140;7.614;2022-08-24T00:38:22;6.13;;;3.90;;
5147;SDS011;2592;48.140;7.614;2022-08-24T00:40:49;5.07;;;3.83;;
5147;SDS011;2592;48.140;7.614;2022-08-24T00:43:16;5.63;;;3.73;;
5147;SDS011;2592;48.140;7.614;2022-08-24T00:45:43;8.13;;;3.70;;
5147;SDS011;2592;48.140;7.614;2022-08-24T00:48:12;6.50;;;4.53;;
5147;SDS011;2592;48.140;7.614;2022-08-24T00:50:40;5.97;;;3.97;;
5147;SDS011;2592;48.140;7.614;2022-08-24T00:53:09;5.90;;;4.00;;
5147;SDS011;2592;48.140;7.614;2022-08-24T00:55:38;6.37;;;3.40;;
5147;SDS011;2592;48.140;7.614;2022-08-24T00:58:06;6.33;;;3.60;;
5147;SDS011;2592;48.140;7.614;2022-08-24T01:00:35;8.90;;;3.93;;
5147;SDS011;2592;48.140;7.614;2022-08-24T01:03:02;4.27;;;3.40;;
5147;SDS011;2592;48.140;7.614;2022-08-24T01:05:31;6.37;;;3.47;;
5147;SDS011;2592;48.140;7.614;2022-08-24T01:07:57;5.50;;;3.50;;
5147;SDS011;2592;48.140;7.614;2022-08-24T01:10:24;4.93;;;3.30;;
5147;SDS011;2592;48.140;7.614;2022-08-24T01:12:54;7.83;;;3.63;;
5147;SDS011;2592;48.140;7.614;2022-08-24T01:15:21;4.97;;;4.03;;
5147;SDS011;2592;48.140;7.614;2022-08-24T01:17:48;4.93;;;3.83;;
5147;SDS011;2592;48.140;7.614;2022-08-24T01:20:32;6.20;;;3.80;;
5147;SDS011;2592;48.140;7.614;2022-08-24T01:23:00;6.27;;;4.10;;
5147;SDS011;2592;48.140;7.614;2022-08-24T01:25:30;6.77;;;4.20;;
5147;SDS011;2592;48.140;7.614;2022-08-24T01:27:58;6.60;;;3.97;;
5147;SDS011;2592;48.140;7.614;2022-08-24T01:30:25;9.03;;;4.33;;
5147;SDS011;2592;48.140;7.614;2022-08-24T01:32:53;10.27;;;3.90;;
5147;SDS011;2592;48.140;7.614;2022-08-24T01:35:19;5.77;;;4.00;;
5147;SDS011;2592;48.140;7.614;2022-08-24T01:37:46;5.93;;;4.10;;
5147;SDS011;2592;48.140;7.614;2022-08-24T01:40:13;5.57;;;4.03;;
5147;SDS011;2592;48.140;7.614;2022-08-24T01:42:40;5.37;;;4.00;;
5147;SDS011;2592;48.140;7.614;2022-08-24T01:45:12;4.40;;;3.57;;
5147;SDS011;2592;48.140;7.614;2022-08-24T01:47:38;5.17;;;3.60;;
5147;SDS011;2592;48.140;7.614;2022-08-24T01:50:05;4.80;;;4.30;;
5147;SDS011;2592;48.140;7.614;2022-08-24T01:52:32;5.93;;;3.70;;
5147;SDS011;2592;48.140;7.614;2022-08-24T01:54:59;5.03;;;3.47;;
5147;SDS011;2592;48.140;7.614;2022-08-24T01:57:26;5.03;;;3.40;;
5147;SDS011;2592;48.140;7.614;2022-08-24T01:59:53;5.57;;;3.50;;
5147;SDS011;2592;48.140;7.614;2022-08-24T02:02:21;7.90;;;3.90;;
5147;SDS011;2592;48.140;7.614;2022-08-24T02:04:49;6.17;;;3.80;;
5147;SDS011;2592;48.140;7.614;2022-08-24T02:07:16;8.00;;;4.30;;
5147;SDS011;2592;48.140;7.614;2022-08-24T02:09:43;5.93;;;4.30;;
5147;SDS011;2592;48.140;7.614;2022-08-24T02:12:10;5.33;;;3.37;;
5147;SDS011;2592;48.140;7.614;2022-08-24T02:14:36;9.37;;;4.90;;
5147;SDS011;2592;48.140;7.614;2022-08-24T02:17:05;5.00;;;3.90;;
5147;SDS011;2592;48.140;7.614;2022-08-24T02:19:31;6.43;;;4.93;;
5147;SDS011;2592;48.140;7.614;2022-08-24T02:21:58;9.70;;;4.03;;
5147;SDS011;2592;48.140;7.614;2022-08-24T02:24:25;5.80;;;4.20;;
5147;SDS011;2592;48.140;7.614;2022-08-24T02:26:51;13.00;;;4.40;;
5147;SDS011;2592;48.140;7.614;2022-08-24T02:29:18;5.40;;;3.77;;
5147;SDS011;2592;48.140;7.614;2022-08-24T02:31:44;14.90;;;4.70;;
5147;SDS011;2592;48.140;7.614;2022-08-24T02:34:12;5.33;;;4.70;;
5147;SDS011;2592;48.140;7.614;2022-08-24T02:36:39;6.03;;;4.17;;
5147;SDS011;2592;48.140;7.614;2022-08-24T02:39:06;4.83;;;3.90;;
5147;SDS011;2592;48.140;7.614;2022-08-24T02:41:33;6.80;;;4.53;;
5147;SDS011;2592;48.140;7.614;2022-08-24T02:44:00;6.30;;;4.10;;
5147;SDS011;2592;48.140;7.614;2022-08-24T03:04:45;6.43;;;4.17;;
5147;SDS011;2592;48.140;7.614;2022-08-24T03:07:12;4.80;;;3.80;;
5147;SDS011;2592;48.140;7.614;2022-08-24T03:09:38;4.20;;;3.80;;
5147;SDS011;2592;48.140;7.614;2022-08-24T03:12:05;9.70;;;4.50;;
5147;SDS011;2592;48.140;7.614;2022-08-24T03:14:31;5.43;;;4.20;;
5147;SDS011;2592;48.140;7.614;2022-08-24T03:16:59;7.60;;;3.93;;
5147;SDS011;2592;48.140;7.614;2022-08-24T03:19:26;11.20;;;4.50;;
5147;SDS011;2592;48.140;7.614;2022-08-24T03:21:53;4.33;;;3.77;;
5147;SDS011;2592;48.140;7.614;2022-08-24T03:24:20;9.63;;;3.60;;
5147;SDS011;2592;48.140;7.614;2022-08-24T03:26:47;8.63;;;4.80;;
5147;SDS011;2592;48.140;7.614;2022-08-24T03:29:14;6.77;;;3.70;;
5147;SDS011;2592;48.140;7.614;2022-08-24T03:31:40;6.03;;;4.00;;
5147;SDS011;2592;48.140;7.614;2022-08-24T03:34:07;6.43;;;4.77;;
5147;SDS011;2592;48.140;7.614;2022-08-24T03:36:37;6.43;;;4.23;;
5147;SDS011;2592;48.140;7.614;2022-08-24T03:39:05;9.93;;;4.30;;
5147;SDS011;2592;48.140;7.614;2022-08-24T03:41:32;8.40;;;4.83;;
5147;SDS011;2592;48.140;7.614;2022-08-24T03:43:58;7.70;;;4.23;;
5147;SDS011;2592;48.140;7.614;2022-08-24T03:46:26;5.80;;;4.27;;
5147;SDS011;2592;48.140;7.614;2022-08-24T03:48:54;8.07;;;4.60;;
5147;SDS011;2592;48.140;7.614;2022-08-24T03:51:21;9.50;;;4.90;;
5147;SDS011;2592;48.140;7.614;2022-08-24T03:53:48;6.90;;;4.27;;
5147;SDS011;2592;48.140;7.614;2022-08-24T03:56:16;8.50;;;4.30;;
5147;SDS011;2592;48.140;7.614;2022-08-24T03:58:43;4.20;;;3.80;;
5147;SDS011;2592;48.140;7.614;2022-08-24T04:01:10;8.17;;;3.83;;
5147;SDS011;2592;48.140;7.614;2022-08-24T04:03:37;5.63;;;3.97;;
5147;SDS011;2592;48.140;7.614;2022-08-24T04:06:05;14.43;;;5.20;;
5147;SDS011;2592;48.140;7.614;2022-08-24T04:08:32;6.70;;;4.00;;
5147;SDS011;2592;48.140;7.614;2022-08-24T04:10:58;4.43;;;3.70;;
5147;SDS011;2592;48.140;7.614;2022-08-24T04:13:26;10.30;;;4.60;;
5147;SDS011;2592;48.140;7.614;2022-08-24T04:15:56;5.23;;;4.53;;
5147;SDS011;2592;48.140;7.614;2022-08-24T04:18:22;5.20;;;3.93;;
5147;SDS011;2592;48.140;7.614;2022-08-24T04:20:49;11.10;;;4.73;;
5147;SDS011;2592;48.140;7.614;2022-08-24T04:23:15;4.70;;;3.73;;
5147;SDS011;2592;48.140;7.614;2022-08-24T04:25:43;8.33;;;3.93;;
5147;SDS011;2592;48.140;7.614;2022-08-24T04:28:11;4.90;;;3.60;;
5147;SDS011;2592;48.140;7.614;2022-08-24T04:30:42;7.20;;;4.07;;
5147;SDS011;2592;48.140;7.614;2022-08-24T04:33:09;9.77;;;4.83;;
5147;SDS011;2592;48.140;7.614;2022-08-24T04:35:36;7.43;;;4.63;;
5147;SDS011;2592;48.140;7.614;2022-08-24T04:38:03;5.87;;;3.97;;
5147;SDS011;2592;48.140;7.614;2022-08-24T04:40:29;8.10;;;4.43;;
5147;SDS011;2592;48.140;7.614;2022-08-24T04:42:56;6.20;;;4.50;;
5147;SDS011;2592;48.140;7.614;2022-08-24T04:45:23;8.80;;;4.97;;
5147;SDS011;2592;48.140;7.614;2022-08-24T04:47:51;13.03;;;4.00;;
5147;SDS011;2592;48.140;7.614;2022-08-24T04:50:17;16.03;;;5.00;;
5147;SDS011;2592;48.140;7.614;2022-08-24T04:52:43;6.53;;;5.10;;
5147;SDS011;2592;48.140;7.614;2022-08-24T04:55:10;6.83;;;6.10;;
5147;SDS011;2592;48.140;7.614;2022-08-24T04:57:36;10.07;;;8.50;;
5147;SDS011;2592;48.140;7.614;2022-08-24T05:00:03;16.90;;;10.43;;
5147;SDS011;2592;48.140;7.614;2022-08-24T05:02:30;11.00;;;7.90;;
5147;SDS011;2592;48.140;7.614;2022-08-24T05:04:58;14.60;;;9.70;;
5147;SDS011;2592;48.140;7.614;2022-08-24T05:07:24;8.53;;;7.47;;
5147;SDS011;2592;48.140;7.614;2022-08-24T05:09:50;9.33;;;6.27;;
5147;SDS011;2592;48.140;7.614;2022-08-24T05:12:17;5.47;;;4.70;;
5147;SDS011;2592;48.140;7.614;2022-08-24T05:14:45;8.60;;;4.20;;
5147;SDS011;2592;48.140;7.614;2022-08-24T05:17:11;6.90;;;4.87;;
5147;SDS011;2592;48.140;7.614;2022-08-24T05:19:38;5.70;;;4.50;;
5147;SDS011;2592;48.140;7.614;2022-08-24T05:22:05;12.83;;;5.27;;
5147;SDS011;2592;48.140;7.614;2022-08-24T05:24:32;6.23;;;4.80;;
5147;SDS011;2592;48.140;7.614;2022-08-24T05:26:58;7.50;;;6.63;;
5147;SDS011;2592;48.140;7.614;2022-08-24T05:29:24;10.40;;;8.20;;
5147;SDS011;2592;48.140;7.614;2022-08-24T05:31:51;9.53;;;6.90;;
5147;SDS011;2592;48.140;7.614;2022-08-24T05:34:18;19.07;;;9.80;;
5147;SDS011;2592;48.140;7.614;2022-08-24T05:36:44;66.20;;;42.50;;
5147;SDS011;2592;48.140;7.614;2022-08-24T05:39:12;63.80;;;40.03;;
5147;SDS011;2592;48.140;7.614;2022-08-24T05:41:39;184.07;;;133.17;;
5147;SDS011;2592;48.140;7.614;2022-08-24T05:44:06;74.33;;;58.50;;
5147;SDS011;2592;48.140;7.614;2022-08-24T05:46:32;103.17;;;80.90;;
5147;SDS011;2592;48.140;7.614;2022-08-24T05:48:59;29.57;;;22.30;;
5147;SDS011;2592;48.140;7.614;2022-08-24T05:51:27;27.70;;;21.53;;
5147;SDS011;2592;48.140;7.614;2022-08-24T05:53:53;44.17;;;30.40;;
5147;SDS011;2592;48.140;7.614;2022-08-24T05:56:21;63.60;;;44.70;;
5147;SDS011;2592;48.140;7.614;2022-08-24T05:58:48;60.03;;;41.80;;
5147;SDS011;2592;48.140;7.614;2022-08-24T06:01:15;21.60;;;16.27;;
5147;SDS011;2592;48.140;7.614;2022-08-24T06:03:42;11.30;;;7.93;;
5147;SDS011;2592;48.140;7.614;2022-08-24T06:06:08;7.23;;;6.13;;
5147;SDS011;2592;48.140;7.614;2022-08-24T06:08:36;8.30;;;5.73;;
5147;SDS011;2592;48.140;7.614;2022-08-24T06:11:03;8.17;;;4.77;;
5147;SDS011;2592;48.140;7.614;2022-08-24T06:13:31;4.57;;;4.10;;
5147;SDS011;2592;48.140;7.614;2022-08-24T06:16:02;11.60;;;5.40;;
5147;SDS011;2592;48.140;7.614;2022-08-24T06:18:29;11.07;;;4.90;;
5147;SDS011;2592;48.140;7.614;2022-08-24T06:20:55;8.07;;;5.07;;
5147;SDS011;2592;48.140;7.614;2022-08-24T06:23:22;25.53;;;5.90;;
5147;SDS011;2592;48.140;7.614;2022-08-24T06:25:48;7.43;;;4.90;;
5147;SDS011;2592;48.140;7.614;2022-08-24T06:28:33;11.63;;;5.87;;
5147;SDS011;2592;48.140;7.614;2022-08-24T06:31:01;5.67;;;4.33;;
5147;SDS011;2592;48.140;7.614;2022-08-24T06:33:27;6.17;;;4.63;;
5147;SDS011;2592;48.140;7.614;2022-08-24T06:35:54;9.90;;;5.37;;
5147;SDS011;2592;48.140;7.614;2022-08-24T06:38:20;9.13;;;4.63;;
5147;SDS011;2592;48.140;7.614;2022-08-24T06:40:47;14.83;;;6.00;;
5147;SDS011;2592;48.140;7.614;2022-08-24T06:43:13;7.53;;;5.03;;
5147;SDS011;2592;48.140;7.614;2022-08-24T06:45:41;5.63;;;4.60;;
5147;SDS011;2592;48.140;7.614;2022-08-24T06:48:07;15.13;;;4.93;;
5147;SDS011;2592;48.140;7.614;2022-08-24T06:50:34;7.40;;;5.30;;
5147;SDS011;2592;48.140;7.614;2022-08-24T06:53:01;5.73;;;5.03;;
5147;SDS011;2592;48.140;7.614;2022-08-24T06:55:27;7.70;;;4.67;;
5147;SDS011;2592;48.140;7.614;2022-08-24T06:57:54;8.03;;;4.90;;
5147;SDS011;2592;48.140;7.614;2022-08-24T07:00:21;10.30;;;4.40;;
5147;SDS011;2592;48.140;7.614;2022-08-24T07:02:50;5.90;;;5.00;;
5147;SDS011;2592;48.140;7.614;2022-08-24T07:05:17;9.30;;;5.67;;
5147;SDS011;2592;48.140;7.614;2022-08-24T07:07:43;9.50;;;6.33;;
5147;SDS011;2592;48.140;7.614;2022-08-24T07:10:10;12.70;;;5.13;;
5147;SDS011;2592;48.140;7.614;2022-08-24T07:12:36;10.67;;;5.63;;
5147;SDS011;2592;48.140;7.614;2022-08-24T07:15:03;6.20;;;4.80;;
5147;SDS011;2592;48.140;7.614;2022-08-24T07:17:29;6.93;;;5.47;;
5147;SDS011;2592;48.140;7.614;2022-08-24T07:19:57;10.07;;;6.03;;
5147;SDS011;2592;48.140;7.614;2022-08-24T07:22:24;4.97;;;4.23;;
5147;SDS011;2592;48.140;7.614;2022-08-24T07:24:50;8.30;;;4.60;;
5147;SDS011;2592;48.140;7.614;2022-08-24T07:27:16;5.40;;;4.30;;
5147;SDS011;2592;48.140;7.614;2022-08-24T07:29:43;12.07;;;5.20;;
5147;SDS011;2592;48.140;7.614;2022-08-24T07:32:10;10.90;;;4.30;;
5147;SDS011;2592;48.140;7.614;2022-08-24T07:34:36;6.10;;;4.77;;
5147;SDS011;2592;48.140;7.614;2022-08-24T07:37:04;9.50;;;4.30;;
5147;SDS011;2592;48.140;7.614;2022-08-24T07:39:31;10.13;;;4.83;;
5147;SDS011;2592;48.140;7.614;2022-08-24T07:41:58;8.77;;;4.33;;
5147;SDS011;2592;48.140;7.614;2022-08-24T07:44:24;7.13;;;4.47;;
5147;SDS011;2592;48.140;7.614;2022-08-24T07:46:51;15.77;;;4.53;;
5147;SDS011;2592;48.140;7.614;2022-08-24T07:49:17;9.63;;;4.10;;
5147;SDS011;2592;48.140;7.614;2022-08-24T07:51:43;6.53;;;4.10;;
5147;SDS011;2592;48.140;7.614;2022-08-24T07:54:11;9.93;;;4.70;;
5147;SDS011;2592;48.140;7.614;2022-08-24T07:56:38;9.03;;;4.70;;
5147;SDS011;2592;48.140;7.614;2022-08-24T07:59:04;8.07;;;5.00;;
5147;SDS011;2592;48.140;7.614;2022-08-24T08:01:31;4.30;;;3.90;;
5147;SDS011;2592;48.140;7.614;2022-08-24T08:03:58;11.17;;;4.20;;
5147;SDS011;2592;48.140;7.614;2022-08-24T08:06:24;13.10;;;4.40;;
5147;SDS011;2592;48.140;7.614;2022-08-24T08:08:50;8.80;;;4.33;;
5147;SDS011;2592;48.140;7.614;2022-08-24T08:11:18;8.47;;;4.67;;
5147;SDS011;2592;48.140;7.614;2022-08-24T08:13:45;5.67;;;4.00;;
5147;SDS011;2592;48.140;7.614;2022-08-24T08:16:11;17.23;;;6.93;;
5147;SDS011;2592;48.140;7.614;2022-08-24T08:18:38;5.90;;;4.57;;
5147;SDS011;2592;48.140;7.614;2022-08-24T08:21:04;13.17;;;4.50;;
5147;SDS011;2592;48.140;7.614;2022-08-24T08:23:51;8.30;;;4.33;;
5147;SDS011;2592;48.140;7.614;2022-08-24T08:26:36;9.03;;;4.47;;
5147;SDS011;2592;48.140;7.614;2022-08-24T08:29:03;10.73;;;4.53;;
5147;SDS011;2592;48.140;7.614;2022-08-24T08:31:29;9.10;;;4.50;;
5147;SDS011;2592;48.140;7.614;2022-08-24T08:33:55;6.90;;;3.90;;
5147;SDS011;2592;48.140;7.614;2022-08-24T08:36:22;5.73;;;3.93;;
5147;SDS011;2592;48.140;7.614;2022-08-24T08:38:49;7.57;;;4.30;;
5147;SDS011;2592;48.140;7.614;2022-08-24T08:41:21;7.40;;;4.13;;
5147;SDS011;2592;48.140;7.614;2022-08-24T08:43:56;15.77;;;4.10;;
5147;SDS011;2592;48.140;7.614;2022-08-24T08:46:28;17.07;;;3.67;;
5147;SDS011;2592;48.140;7.614;2022-08-24T08:49:02;10.43;;;3.77;;
5147;SDS011;2592;48.140;7.614;2022-08-24T08:54:31;5.33;;;3.80;;
5147;SDS011;2592;48.140;7.614;2022-08-24T08:57:06;4.63;;;3.47;;
5147;SDS011;2592;48.140;7.614;2022-08-24T08:59:46;15.93;;;4.20;;
5147;SDS011;2592;48.140;7.614;2022-08-24T09:02:20;6.93;;;3.93;;
5147;SDS011;2592;48.140;7.614;2022-08-24T09:04:59;4.97;;;3.80;;
5147;SDS011;2592;48.140;7.614;2022-08-24T09:07:38;8.37;;;3.73;;
5147;SDS011;2592;48.140;7.614;2022-08-24T09:10:20;8.07;;;3.47;;
5147;SDS011;2592;48.140;7.614;2022-08-24T09:12:53;5.57;;;3.13;;
5147;SDS011;2592;48.140;7.614;2022-08-24T09:15:31;7.53;;;3.33;;
5147;SDS011;2592;48.140;7.614;2022-08-24T09:18:04;11.40;;;3.80;;
5147;SDS011;2592;48.140;7.614;2022-08-24T09:20:49;7.17;;;3.97;;
5147;SDS011;2592;48.140;7.614;2022-08-24T09:23:23;8.50;;;3.20;;
5147;SDS011;2592;48.140;7.614;2022-08-24T09:25:51;5.67;;;3.87;;
5147;SDS011;2592;48.140;7.614;2022-08-24T09:28:26;8.80;;;3.30;;
5147;SDS011;2592;48.140;7.614;2022-08-24T09:31:01;4.60;;;3.20;;
5147;SDS011;2592;48.140;7.614;2022-08-24T09:33:30;4.90;;;2.83;;
5147;SDS011;2592;48.140;7.614;2022-08-24T09:36:05;7.47;;;3.10;;
5147;SDS011;2592;48.140;7.614;2022-08-24T09:38:37;5.37;;;2.40;;
5147;SDS011;2592;48.140;7.614;2022-08-24T09:41:22;5.53;;;3.07;;
5147;SDS011;2592;48.140;7.614;2022-08-24T09:44:00;3.67;;;2.83;;
5147;SDS011;2592;48.140;7.614;2022-08-24T09:46:37;6.03;;;2.60;;
5147;SDS011;2592;48.140;7.614;2022-08-24T09:49:17;21.50;;;3.50;;
5147;SDS011;2592;48.140;7.614;2022-08-24T09:51:59;3.80;;;2.07;;
5147;SDS011;2592;48.140;7.614;2022-08-24T09:57:18;5.87;;;2.57;;
5147;SDS011;2592;48.140;7.614;2022-08-24T10:05:33;3.73;;;2.47;;
5147;SDS011;2592;48.140;7.614;2022-08-24T10:08:08;6.20;;;2.70;;
5147;SDS011;2592;48.140;7.614;2022-08-24T10:10:44;6.20;;;3.00;;
5147;SDS011;2592;48.140;7.614;2022-08-24T10:13:16;7.23;;;2.70;;
5147;SDS011;2592;48.140;7.614;2022-08-24T10:15:45;3.43;;;2.27;;
5147;SDS011;2592;48.140;7.614;2022-08-24T10:18:25;5.67;;;2.77;;
5147;SDS011;2592;48.140;7.614;2022-08-24T10:21:06;4.40;;;2.70;;
5147;SDS011;2592;48.140;7.614;2022-08-24T10:23:37;7.40;;;2.60;;
5147;SDS011;2592;48.140;7.614;2022-08-24T10:26:08;6.20;;;2.70;;
5147;SDS011;2592;48.140;7.614;2022-08-24T10:31:22;3.27;;;2.23;;
5147;SDS011;2592;48.140;7.614;2022-08-24T10:33:55;7.23;;;2.90;;
5147;SDS011;2592;48.140;7.614;2022-08-24T10:42:20;5.77;;;2.63;;
5147;SDS011;2592;48.140;7.614;2022-08-24T10:45:10;4.03;;;2.40;;
5147;SDS011;2592;48.140;7.614;2022-08-24T10:47:43;6.40;;;2.20;;
5147;SDS011;2592;48.140;7.614;2022-08-24T10:50:26;13.40;;;2.60;;
5147;SDS011;2592;48.140;7.614;2022-08-24T10:53:05;2.63;;;2.40;;
5147;SDS011;2592;48.140;7.614;2022-08-24T10:55:37;7.07;;;2.80;;
5147;SDS011;2592;48.140;7.614;2022-08-24T11:00:50;7.07;;;2.70;;
5147;SDS011;2592;48.140;7.614;2022-08-24T11:03:18;4.83;;;2.60;;
5147;SDS011;2592;48.140;7.614;2022-08-24T11:05:48;6.67;;;2.70;;
5147;SDS011;2592;48.140;7.614;2022-08-24T11:08:19;8.80;;;2.90;;
5147;SDS011;2592;48.140;7.614;2022-08-24T11:10:46;5.97;;;2.30;;
5147;SDS011;2592;48.140;7.614;2022-08-24T11:13:27;9.27;;;2.50;;
5147;SDS011;2592;48.140;7.614;2022-08-24T11:15:55;6.90;;;2.60;;
5147;SDS011;2592;48.140;7.614;2022-08-24T11:18:22;6.40;;;2.57;;
5147;SDS011;2592;48.140;7.614;2022-08-24T11:20:50;14.20;;;2.50;;
5147;SDS011;2592;48.140;7.614;2022-08-24T11:23:17;3.50;;;2.30;;
5147;SDS011;2592;48.140;7.614;2022-08-24T11:25:51;6.03;;;2.70;;
5147;SDS011;2592;48.140;7.614;2022-08-24T11:28:19;8.70;;;2.93;;
5147;SDS011;2592;48.140;7.614;2022-08-24T11:30:46;3.03;;;2.30;;
5147;SDS011;2592;48.140;7.614;2022-08-24T11:33:24;4.27;;;2.40;;
5147;SDS011;2592;48.140;7.614;2022-08-24T11:35:51;3.20;;;2.20;;
5147;SDS011;2592;48.140;7.614;2022-08-24T11:38:18;8.23;;;2.53;;
5147;SDS011;2592;48.140;7.614;2022-08-24T11:40:47;7.13;;;2.47;;
5147;SDS011;2592;48.140;7.614;2022-08-24T11:43:18;6.30;;;3.30;;
5147;SDS011;2592;48.140;7.614;2022-08-24T11:45:50;4.03;;;2.00;;
5147;SDS011;2592;48.140;7.614;2022-08-24T11:48:27;14.00;;;2.87;;
5147;SDS011;2592;48.140;7.614;2022-08-24T11:50:58;6.20;;;3.30;;
5147;SDS011;2592;48.140;7.614;2022-08-24T11:53:30;3.33;;;2.13;;
5147;SDS011;2592;48.140;7.614;2022-08-24T11:56:00;5.00;;;2.00;;
5147;SDS011;2592;48.140;7.614;2022-08-24T11:58:34;8.03;;;2.30;;
5147;SDS011;2592;48.140;7.614;2022-08-24T12:01:04;3.73;;;2.27;;
5147;SDS011;2592;48.140;7.614;2022-08-24T12:03:40;4.17;;;2.40;;
5147;SDS011;2592;48.140;7.614;2022-08-24T12:06:09;9.53;;;2.50;;
5147;SDS011;2592;48.140;7.614;2022-08-24T12:08:40;2.47;;;2.00;;
5147;SDS011;2592;48.140;7.614;2022-08-24T12:11:10;4.50;;;2.27;;
5147;SDS011;2592;48.140;7.614;2022-08-24T12:13:42;4.97;;;2.50;;
5147;SDS011;2592;48.140;7.614;2022-08-24T12:16:11;2.50;;;1.90;;
5147;SDS011;2592;48.140;7.614;2022-08-24T12:18:46;3.87;;;2.03;;
5147;SDS011;2592;48.140;7.614;2022-08-24T12:21:16;3.50;;;2.30;;
5147;SDS011;2592;48.140;7.614;2022-08-24T12:23:43;4.73;;;2.40;;
5147;SDS011;2592;48.140;7.614;2022-08-24T12:26:12;3.07;;;1.97;;
5147;SDS011;2592;48.140;7.614;2022-08-24T12:28:39;4.73;;;2.03;;
5147;SDS011;2592;48.140;7.614;2022-08-24T12:31:08;3.70;;;2.40;;
5147;SDS011;2592;48.140;7.614;2022-08-24T12:33:36;5.70;;;1.83;;
5147;SDS011;2592;48.140;7.614;2022-08-24T12:36:06;3.90;;;2.33;;
5147;SDS011;2592;48.140;7.614;2022-08-24T12:38:36;6.70;;;2.47;;
5147;SDS011;2592;48.140;7.614;2022-08-24T12:41:04;2.27;;;2.07;;
5147;SDS011;2592;48.140;7.614;2022-08-24T12:43:34;6.40;;;2.10;;
5147;SDS011;2592;48.140;7.614;2022-08-24T12:46:02;4.57;;;1.93;;
5147;SDS011;2592;48.140;7.614;2022-08-24T12:48:33;6.13;;;2.67;;
5147;SDS011;2592;48.140;7.614;2022-08-24T12:51:06;4.97;;;2.13;;
5147;SDS011;2592;48.140;7.614;2022-08-24T12:56:30;4.00;;;2.53;;
5147;SDS011;2592;48.140;7.614;2022-08-24T12:59:05;6.40;;;1.93;;
5147;SDS011;2592;48.140;7.614;2022-08-24T13:01:33;2.80;;;1.83;;
5147;SDS011;2592;48.140;7.614;2022-08-24T13:04:02;4.00;;;2.00;;
5147;SDS011;2592;48.140;7.614;2022-08-24T13:06:36;5.17;;;2.00;;
5147;SDS011;2592;48.140;7.614;2022-08-24T13:09:04;3.90;;;2.10;;
5147;SDS011;2592;48.140;7.614;2022-08-24T13:11:32;3.50;;;2.10;;
5147;SDS011;2592;48.140;7.614;2022-08-24T13:14:06;6.10;;;1.90;;
5147;SDS011;2592;48.140;7.614;2022-08-24T13:16:48;3.67;;;2.03;;
5147;SDS011;2592;48.140;7.614;2022-08-24T13:19:16;3.67;;;2.20;;
5147;SDS011;2592;48.140;7.614;2022-08-24T13:21:57;3.33;;;2.10;;
5147;SDS011;2592;48.140;7.614;2022-08-24T13:30:03;4.73;;;2.00;;
5147;SDS011;2592;48.140;7.614;2022-08-24T13:32:31;3.13;;;2.30;;
5147;SDS011;2592;48.140;7.614;2022-08-24T13:35:03;11.50;;;2.77;;
5147;SDS011;2592;48.140;7.614;2022-08-24T13:40:30;3.90;;;2.00;;
5147;SDS011;2592;48.140;7.614;2022-08-24T13:43:01;6.10;;;2.53;;
5147;SDS011;2592;48.140;7.614;2022-08-24T13:45:33;3.13;;;1.83;;
5147;SDS011;2592;48.140;7.614;2022-08-24T13:48:12;9.47;;;2.10;;
5147;SDS011;2592;48.140;7.614;2022-08-24T13:50:42;15.47;;;2.33;;
5147;SDS011;2592;48.140;7.614;2022-08-24T13:53:31;5.07;;;1.90;;
5147;SDS011;2592;48.140;7.614;2022-08-24T13:56:16;3.23;;;1.83;;
5147;SDS011;2592;48.140;7.614;2022-08-24T13:58:44;3.67;;;2.07;;
5147;SDS011;2592;48.140;7.614;2022-08-24T14:01:20;5.97;;;2.13;;
5147;SDS011;2592;48.140;7.614;2022-08-24T14:03:52;2.97;;;2.23;;
5147;SDS011;2592;48.140;7.614;2022-08-24T14:06:25;8.87;;;2.27;;
5147;SDS011;2592;48.140;7.614;2022-08-24T14:08:54;5.13;;;1.83;;
5147;SDS011;2592;48.140;7.614;2022-08-24T14:11:33;5.00;;;1.90;;
5147;SDS011;2592;48.140;7.614;2022-08-24T14:14:03;4.80;;;1.87;;
5147;SDS011;2592;48.140;7.614;2022-08-24T14:16:34;6.70;;;2.37;;
5147;SDS011;2592;48.140;7.614;2022-08-24T14:19:22;2.27;;;1.80;;
5147;SDS011;2592;48.140;7.614;2022-08-24T14:21:51;8.60;;;2.10;;
5147;SDS011;2592;48.140;7.614;2022-08-24T14:24:23;10.23;;;1.73;;
5147;SDS011;2592;48.140;7.614;2022-08-24T14:29:37;5.30;;;2.03;;
5147;SDS011;2592;48.140;7.614;2022-08-24T14:37:44;5.73;;;1.73;;
5147;SDS011;2592;48.140;7.614;2022-08-24T14:40:14;4.40;;;1.70;;
5147;SDS011;2592;48.140;7.614;2022-08-24T14:42:46;5.50;;;1.70;;
5147;SDS011;2592;48.140;7.614;2022-08-24T14:45:21;5.90;;;1.87;;
5147;SDS011;2592;48.140;7.614;2022-08-24T14:47:52;10.10;;;2.23;;
5147;SDS011;2592;48.140;7.614;2022-08-24T14:50:24;3.70;;;2.23;;
5147;SDS011;2592;48.140;7.614;2022-08-24T14:52:58;2.30;;;1.80;;
5147;SDS011;2592;48.140;7.614;2022-08-24T14:55:30;5.53;;;2.10;;
5147;SDS011;2592;48.140;7.614;2022-08-24T14:58:02;4.83;;;1.60;;
5147;SDS011;2592;48.140;7.614;2022-08-24T15:00:46;4.20;;;2.00;;
5147;SDS011;2592;48.140;7.614;2022-08-24T15:03:28;4.80;;;2.20;;
5147;SDS011;2592;48.140;7.614;2022-08-24T15:06:04;3.93;;;2.10;;
5147;SDS011;2592;48.140;7.614;2022-08-24T15:08:32;7.57;;;1.93;;
5147;SDS011;2592;48.140;7.614;2022-08-24T15:11:07;4.90;;;1.80;;
5147;SDS011;2592;48.140;7.614;2022-08-24T15:13:40;2.77;;;1.70;;
5147;SDS011;2592;48.140;7.614;2022-08-24T15:16:11;4.53;;;2.13;;
5147;SDS011;2592;48.140;7.614;2022-08-24T15:18:39;2.60;;;1.97;;
5147;SDS011;2592;48.140;7.614;2022-08-24T15:21:10;3.33;;;1.53;;
5147;SDS011;2592;48.140;7.614;2022-08-24T15:23:46;2.60;;;2.00;;
5147;SDS011;2592;48.140;7.614;2022-08-24T15:26:17;3.60;;;1.93;;
5147;SDS011;2592;48.140;7.614;2022-08-24T15:28:47;2.23;;;1.70;;
5147;SDS011;2592;48.140;7.614;2022-08-24T15:31:17;6.13;;;1.90;;
5147;SDS011;2592;48.140;7.614;2022-08-24T15:33:50;5.13;;;1.83;;
5147;SDS011;2592;48.140;7.614;2022-08-24T15:36:16;1.70;;;1.43;;
5147;SDS011;2592;48.140;7.614;2022-08-24T15:38:43;1.70;;;1.20;;
5147;SDS011;2592;48.140;7.614;2022-08-24T15:41:11;5.50;;;2.03;;
5147;SDS011;2592;48.140;7.614;2022-08-24T15:43:39;7.60;;;1.67;;
5147;SDS011;2592;48.140;7.614;2022-08-24T15:46:08;2.80;;;1.43;;
5147;SDS011;2592;48.140;7.614;2022-08-24T15:48:37;2.40;;;1.43;;
5147;SDS011;2592;48.140;7.614;2022-08-24T15:51:05;2.70;;;1.30;;
5147;SDS011;2592;48.140;7.614;2022-08-24T15:53:33;1.43;;;1.27;;
5147;SDS011;2592;48.140;7.614;2022-08-24T15:56:21;1.00;;;0.90;;
5147;SDS011;2592;48.140;7.614;2022-08-24T15:58:49;1.93;;;1.40;;
5147;SDS011;2592;48.140;7.614;2022-08-24T16:01:20;3.07;;;1.60;;
5147;SDS011;2592;48.140;7.614;2022-08-24T16:04:07;5.40;;;1.50;;
5147;SDS011;2592;48.140;7.614;2022-08-24T16:06:35;2.40;;;1.43;;
5147;SDS011;2592;48.140;7.614;2022-08-24T16:09:03;3.17;;;1.80;;
5147;SDS011;2592;48.140;7.614;2022-08-24T16:11:31;1.50;;;1.40;;
5147;SDS011;2592;48.140;7.614;2022-08-24T16:13:58;4.10;;;1.40;;
5147;SDS011;2592;48.140;7.614;2022-08-24T16:16:35;1.10;;;0.80;;
5147;SDS011;2592;48.140;7.614;2022-08-24T16:19:03;2.40;;;1.30;;
5147;SDS011;2592;48.140;7.614;2022-08-24T16:21:31;2.00;;;1.60;;
5147;SDS011;2592;48.140;7.614;2022-08-24T16:24:00;4.00;;;1.00;;
5147;SDS011;2592;48.140;7.614;2022-08-24T16:26:27;1.23;;;1.10;;
5147;SDS011;2592;48.140;7.614;2022-08-24T16:28:55;2.83;;;1.10;;